Time;durP1;ratioP1;P1;durP2;ratioP2;P2;SDS_P1;SDS_P2;PMS_P1;PMS_P2;Temp;Humidity;BMP_temperature;BMP_pressure;BME280_temperature;BME280_humidity;BME280_pressure;Samples;Min_cycle;Max_cycle;Signal;HPM_P1;HPM_P2
2022/06/16 00:00:49;;;;;;;5.03;4.63;;;;;;;13.49;91.90;102008.25;5013155;28;20468;-46
2022/06/16 00:03:17;;;;;;;4.60;4.20;;;;;;;13.52;91.51;101997.16;5013419;28;20807;-46
2022/06/16 00:05:45;;;;;;;10.67;5.47;;;;;;;13.50;91.70;101991.13;5013091;28;20942;-48
2022/06/16 00:08:16;;;;;;;4.90;4.57;;;;;;;13.48;91.06;101984.28;5012718;28;20464;-51
2022/06/16 00:11:16;;;;;;;4.30;4.03;;;;;;;13.47;91.34;101991.50;5013211;28;20429;-46
2022/06/16 00:13:36;;;;;;;5.93;5.07;;;;;;;13.47;90.79;101994.16;5013059;28;20433;-46
2022/06/16 00:16:05;;;;;;;6.30;4.57;;;;;;;13.52;90.99;101991.78;5013049;28;20459;-45
2022/06/16 00:18:33;;;;;;;5.03;4.70;;;;;;;13.56;90.19;102001.09;5012430;28;20772;-46
2022/06/16 00:21:01;;;;;;;5.90;5.40;;;;;;;13.58;89.77;101998.25;5012887;28;20700;-46
2022/06/16 00:23:29;;;;;;;6.90;4.93;;;;;;;13.54;89.44;102000.47;5013045;28;20437;-45
2022/06/16 00:26:05;;;;;;;5.10;4.70;;;;;;;13.55;89.99;102006.66;5012992;28;20453;-47
2022/06/16 00:28:33;;;;;;;4.97;4.67;;;;;;;13.52;90.13;101999.84;5012249;28;20461;-45
2022/06/16 00:31:02;;;;;;;5.30;4.90;;;;;;;13.51;89.67;101995.47;5011792;28;20429;-47
2022/06/16 00:33:31;;;;;;;7.67;5.00;;;;;;;13.50;89.16;101993.00;5003712;28;20438;-47
2022/06/16 00:35:59;;;;;;;8.13;4.50;;;;;;;13.55;89.39;101982.53;5012656;28;21026;-49
2022/06/16 00:38:27;;;;;;;4.70;3.87;;;;;;;13.56;89.05;101973.50;5012292;28;20842;-52
2022/06/16 00:40:55;;;;;;;5.30;4.73;;;;;;;13.51;89.28;101986.59;5012367;28;20476;-48
2022/06/16 00:43:23;;;;;;;6.60;4.87;;;;;;;13.51;90.14;101975.88;5012576;28;20429;-47
2022/06/16 00:45:56;;;;;;;4.90;4.40;;;;;;;13.43;89.87;101976.81;5012575;28;20472;-49
2022/06/16 00:48:28;;;;;;;7.47;5.00;;;;;;;13.43;89.60;101973.31;5011983;28;20461;-52
2022/06/16 00:50:59;;;;;;;5.10;4.63;;;;;;;13.41;90.27;101962.75;5011608;28;20447;-46
2022/06/16 00:53:29;;;;;;;5.03;4.73;;;;;;;13.42;91.11;101958.22;5012411;28;20439;-47
2022/06/16 00:55:58;;;;;;;4.33;3.83;;;;;;;13.40;90.07;101952.25;5012213;28;20463;-45
2022/06/16 00:58:28;;;;;;;6.80;4.20;;;;;;;13.32;90.58;101955.03;5011873;28;20472;-47
2022/06/16 01:00:57;;;;;;;4.87;4.37;;;;;;;13.25;91.60;101954.94;5012112;28;20495;-46
2022/06/16 01:06:20;;;;;;;7.90;5.00;;;;;;;13.20;92.47;101965.38;5012149;28;20453;-50
2022/06/16 01:08:51;;;;;;;6.63;5.87;;;;;;;13.16;92.52;101967.56;5011804;28;20830;-46
2022/06/16 01:14:27;;;;;;;6.43;4.90;;;;;;;13.19;92.81;101961.84;5012182;28;20441;-51
2022/06/16 01:17:00;;;;;;;6.00;5.50;;;;;;;13.21;92.36;101958.97;5012003;28;20467;-48
2022/06/16 01:19:51;;;;;;;7.60;4.30;;;;;;;13.24;92.39;101982.72;5011919;28;20441;-47
2022/06/16 01:22:36;;;;;;;5.93;5.30;;;;;;;13.23;91.87;101973.03;5011826;28;20459;-48
2022/06/16 01:25:14;;;;;;;4.93;4.53;;;;;;;13.26;91.11;101983.38;5011961;28;20787;-45
2022/06/16 01:28:14;;;;;;;4.70;4.40;;;;;;;13.27;91.12;101988.53;5011663;28;20475;-45
2022/06/16 01:30:54;;;;;;;4.53;4.33;;;;;;;13.28;90.59;101975.97;5009605;28;20461;-46
2022/06/16 01:33:25;;;;;;;4.03;3.83;;;;;;;13.28;89.99;101984.03;4999084;28;20442;-47
2022/06/16 01:36:01;;;;;;;6.73;4.43;;;;;;;13.26;89.67;101978.03;5011856;28;20453;-45
2022/06/16 01:38:37;;;;;;;5.27;4.70;;;;;;;13.20;89.96;101974.22;5011484;28;20464;-46
2022/06/16 01:41:13;;;;;;;5.97;4.80;;;;;;;13.25;90.20;101979.88;5011891;28;20468;-45
2022/06/16 01:43:46;;;;;;;4.90;4.60;;;;;;;13.30;89.94;101980.13;5011718;28;20437;-45
2022/06/16 01:46:22;;;;;;;8.10;4.50;;;;;;;13.28;89.46;101987.53;5011880;28;20461;-48
2022/06/16 01:48:54;;;;;;;8.50;5.00;;;;;;;13.25;89.79;101992.44;5011256;28;20467;-46
2022/06/16 01:51:31;;;;;;;8.83;4.60;;;;;;;13.28;89.46;101987.53;5011718;28;20431;-45
2022/06/16 01:54:03;;;;;;;5.83;4.33;;;;;;;13.35;89.50;101982.25;5011769;28;20449;-45
2022/06/16 01:56:36;;;;;;;4.73;4.30;;;;;;;13.38;88.78;101976.53;5011861;28;20498;-46
2022/06/16 01:59:09;;;;;;;4.23;3.87;;;;;;;13.44;88.65;101974.97;5011258;28;20472;-47
2022/06/16 02:01:42;;;;;;;4.30;3.90;;;;;;;13.46;88.39;101973.78;5011643;28;20472;-45
2022/06/16 02:04:15;;;;;;;5.13;4.73;;;;;;;13.48;88.20;101969.03;5015613;28;20436;-45
2022/06/16 02:06:46;;;;;;;6.80;4.77;;;;;;;13.42;87.49;101975.16;5015405;28;20453;-49
2022/06/16 02:09:16;;;;;;;4.97;4.57;;;;;;;13.36;87.54;101973.22;5014938;28;20463;-45
2022/06/16 02:11:46;;;;;;;5.10;4.80;;;;;;;13.32;87.91;101967.38;5015160;28;20923;-47
2022/06/16 02:14:19;;;;;;;8.70;4.37;;;;;;;13.25;88.15;101977.19;5015417;28;20441;-49
2022/06/16 02:16:50;;;;;;;8.77;4.83;;;;;;;13.18;89.24;101980.78;5015336;28;20453;-45
2022/06/16 02:19:23;;;;;;;4.53;4.23;;;;;;;13.19;89.66;101982.44;5014932;28;20823;-45
2022/06/16 02:21:53;;;;;;;9.10;5.00;;;;;;;13.21;89.68;101985.75;5015108;28;20478;-45
2022/06/16 02:24:23;;;;;;;5.63;5.23;;;;;;;13.17;90.09;101993.31;5015099;28;20441;-47
2022/06/16 02:26:54;;;;;;;5.57;5.10;;;;;;;13.09;90.31;101998.78;5015025;28;20449;-49
2022/06/16 02:29:29;;;;;;;7.10;5.50;;;;;;;13.12;91.31;101989.53;5014650;28;20846;-45
2022/06/16 02:32:09;;;;;;;5.47;5.00;;;;;;;13.13;91.37;102002.75;5012644;28;20448;-46
2022/06/16 02:34:48;;;;;;;8.13;4.70;;;;;;;13.16;90.57;101991.69;5006987;28;20436;-46
2022/06/16 02:37:31;;;;;;;5.63;5.13;;;;;;;13.13;90.28;102005.44;5014498;28;20459;-45
2022/06/16 02:40:30;;;;;;;5.27;4.80;;;;;;;13.10;90.74;101999.63;5014797;28;20429;-49
2022/06/16 02:43:09;;;;;;;4.73;4.30;;;;;;;13.08;90.94;102004.34;5014963;28;20443;-47
2022/06/16 02:45:44;;;;;;;6.97;4.70;;;;;;;13.08;91.41;102009.69;5014567;28;20439;-45
2022/06/16 02:48:18;;;;;;;5.70;5.03;;;;;;;12.97;92.05;101996.69;5014436;28;20475;-46
2022/06/16 02:50:55;;;;;;;7.37;5.13;;;;;;;12.89;93.12;101996.75;5014777;28;20915;-46
2022/06/16 02:53:31;;;;;;;6.30;5.80;;;;;;;12.85;94.17;102007.00;5014748;28;20448;-47
2022/06/16 02:56:07;;;;;;;6.43;5.70;;;;;;;12.76;93.73;101998.22;5014651;28;20452;-46
2022/06/16 02:58:39;;;;;;;6.17;5.60;;;;;;;12.73;94.43;102008.44;5014253;28;20465;-45
2022/06/16 03:01:09;;;;;;;5.20;4.80;;;;;;;12.67;94.16;101999.28;5014623;28;20474;-45
2022/06/16 03:03:39;;;;;;;6.60;5.90;;;;;;;12.62;94.55;101999.00;5014622;28;20444;-46
2022/06/16 03:06:07;;;;;;;5.73;5.17;;;;;;;12.59;95.07;102001.19;5014536;28;20511;-47
2022/06/16 03:08:41;;;;;;;7.00;6.23;;;;;;;12.58;95.05;102003.03;5013974;28;20465;-45
2022/06/16 03:11:10;;;;;;;8.20;6.93;;;;;;;12.52;94.94;101998.41;5014160;28;20454;-46
2022/06/16 03:13:38;;;;;;;6.30;5.60;;;;;;;12.52;94.90;102002.91;5013861;28;20449;-47
2022/06/16 03:16:07;;;;;;;9.23;5.23;;;;;;;12.48;95.48;101997.13;5014002;28;20451;-48
2022/06/16 03:18:34;;;;;;;6.57;5.93;;;;;;;12.55;95.57;101994.53;5013668;28;20557;-47
2022/06/16 03:21:04;;;;;;;6.20;5.03;;;;;;;12.48;95.41;101999.78;5013889;28;20473;-47
2022/06/16 03:23:31;;;;;;;6.80;5.47;;;;;;;12.48;95.59;101999.78;5014117;28;20445;-47
2022/06/16 03:26:00;;;;;;;5.93;5.40;;;;;;;12.53;95.87;102008.09;5013848;28;20460;-46
2022/06/16 03:28:27;;;;;;;6.10;5.50;;;;;;;12.57;95.72;102003.22;5013360;28;21045;-45
2022/06/16 03:30:55;;;;;;;6.20;5.60;;;;;;;12.58;95.62;102004.88;5013893;28;20445;-45
2022/06/16 03:33:23;;;;;;;10.30;6.37;;;;;;;12.59;95.31;102001.19;5001513;28;20569;-46
2022/06/16 03:35:51;;;;;;;6.53;5.50;;;;;;;12.64;95.47;102002.31;5013698;28;20443;-45
2022/06/16 03:38:23;;;;;;;6.23;5.30;;;;;;;12.61;95.15;101991.97;5013341;28;20803;-45
2022/06/16 03:40:50;;;;;;;5.57;5.13;;;;;;;12.71;95.25;101999.75;5013759;28;20422;-47
2022/06/16 03:43:18;;;;;;;6.50;5.43;;;;;;;12.70;94.90;101992.75;5013929;28;20432;-45
2022/06/16 03:45:46;;;;;;;5.67;5.17;;;;;;;12.69;94.88;101991.91;5013682;28;20429;-45
2022/06/16 03:48:13;;;;;;;6.80;5.50;;;;;;;12.68;94.80;101986.75;5013156;28;20471;-49
2022/06/16 03:50:41;;;;;;;6.10;5.53;;;;;;;12.74;95.00;101984.19;5013206;28;20875;-45
2022/06/16 03:53:10;;;;;;;6.50;5.70;;;;;;;12.72;94.94;101980.84;5013489;28;20444;-47
2022/06/16 03:55:39;;;;;;;6.87;6.23;;;;;;;12.75;94.85;101980.47;5013618;28;20437;-46
2022/06/16 03:58:07;;;;;;;9.07;5.17;;;;;;;12.80;95.07;101981.78;5012994;28;20468;-44
2022/06/16 04:00:35;;;;;;;7.80;5.70;;;;;;;12.85;94.22;101984.75;5013287;28;20748;-45
2022/06/16 04:05:54;;;;;;;6.00;5.47;;;;;;;12.96;94.46;101995.03;4998087;28;20457;-44
2022/06/16 04:08:22;;;;;;;6.47;5.70;;;;;;;12.97;94.22;102004.72;5012842;28;20457;-45
2022/06/16 04:10:51;;;;;;;6.80;5.17;;;;;;;13.05;93.89;102010.00;5013293;28;20806;-44
2022/06/16 04:13:18;;;;;;;6.80;4.93;;;;;;;13.14;93.69;102019.66;5013287;28;20429;-48
2022/06/16 04:15:51;;;;;;;8.40;5.00;;;;;;;13.19;92.65;102020.78;5013067;28;20425;-47
2022/06/16 04:18:20;;;;;;;5.60;5.23;;;;;;;13.26;91.59;102023.56;5012875;28;20504;-48
2022/06/16 04:20:49;;;;;;;5.00;4.60;;;;;;;13.34;90.77;102015.44;5012885;28;20436;-47
2022/06/16 04:23:24;;;;;;;7.30;4.73;;;;;;;13.46;90.38;102027.38;5013104;28;20508;-46
2022/06/16 04:25:53;;;;;;;6.23;4.60;;;;;;;13.54;90.13;102029.94;5012804;28;20842;-46
2022/06/16 04:28:21;;;;;;;5.67;4.67;;;;;;;13.61;89.12;102030.88;5012468;28;20464;-47
2022/06/16 04:30:48;;;;;;;8.60;4.67;;;;;;;13.66;88.21;102035.66;5012893;28;20433;-47
2022/06/16 04:33:18;;;;;;;4.83;4.43;;;;;;;13.75;87.36;102031.88;5002321;28;20434;-45
2022/06/16 04:35:46;;;;;;;5.47;5.03;;;;;;;13.81;86.46;102037.34;5012901;28;20811;-46
2022/06/16 04:38:13;;;;;;;5.77;5.43;;;;;;;13.91;86.81;102036.22;5012383;28;20465;-47
2022/06/16 04:40:41;;;;;;;4.90;4.60;;;;;;;13.99;86.01;102042.31;5012502;28;20428;-46
2022/06/16 04:43:10;;;;;;;6.53;5.07;;;;;;;14.08;84.83;102037.66;5012515;28;20480;-48
2022/06/16 04:45:38;;;;;;;7.70;5.17;;;;;;;14.13;84.87;102038.75;5012696;28;20429;-46
2022/06/16 04:48:07;;;;;;;5.13;4.57;;;;;;;14.26;84.49;102038.91;5012316;28;21087;-45
2022/06/16 04:50:35;;;;;;;5.73;5.30;;;;;;;14.45;83.87;102040.19;5012784;28;20429;-45
2022/06/16 04:53:03;;;;;;;8.77;5.33;;;;;;;14.72;82.48;102042.13;5012555;28;20437;-45
2022/06/16 04:55:31;;;;;;;7.10;5.00;;;;;;;15.09;80.74;102034.78;5012298;28;20444;-46
2022/06/16 04:57:59;;;;;;;8.07;5.03;;;;;;;15.18;78.27;102042.50;5012141;28;20461;-47
2022/06/16 05:00:28;;;;;;;6.93;5.43;;;;;;;15.33;76.80;102040.56;5012282;28;20436;-46
2022/06/16 05:02:56;;;;;;;6.23;4.73;;;;;;;15.43;76.20;102046.41;5012419;28;20812;-50
2022/06/16 05:05:24;;;;;;;6.70;5.17;;;;;;;15.38;76.00;102048.84;5012562;28;20461;-49
2022/06/16 05:07:52;;;;;;;7.00;6.00;;;;;;;15.44;75.50;102049.94;5011672;28;20469;-48
2022/06/16 05:10:20;;;;;;;5.30;4.30;;;;;;;15.58;73.63;102049.03;5012098;28;20437;-47
2022/06/16 05:12:47;;;;;;;15.27;5.97;;;;;;;15.83;74.58;102052.88;5012393;28;20435;-50
2022/06/16 05:15:15;;;;;;;6.77;5.43;;;;;;;16.10;74.33;102048.44;5012405;28;20433;-49
2022/06/16 05:17:44;;;;;;;7.07;4.83;;;;;;;16.25;72.80;102050.97;5011598;28;20468;-48
2022/06/16 05:20:12;;;;;;;5.63;5.20;;;;;;;16.40;72.28;102055.19;5011940;28;20432;-46
2022/06/16 05:22:40;;;;;;;6.20;5.20;;;;;;;16.42;71.08;102057.69;5011933;28;20473;-47
2022/06/16 05:25:08;;;;;;;7.60;4.87;;;;;;;16.39;71.37;102058.91;5012313;28;20454;-45
2022/06/16 05:27:36;;;;;;;5.10;4.70;;;;;;;16.65;71.01;102068.94;5011618;28;20883;-46
2022/06/16 05:30:05;;;;;;;5.00;4.70;;;;;;;17.07;69.16;102068.59;5011893;28;20798;-45
2022/06/16 05:32:32;;;;;;;5.93;4.47;;;;;;;17.41;68.21;102069.41;5006875;28;20437;-45
2022/06/16 05:35:01;;;;;;;4.87;4.43;;;;;;;17.98;68.21;102064.09;5006541;28;20429;-47
2022/06/16 05:37:31;;;;;;;5.33;4.83;;;;;;;18.21;66.73;102067.13;5010853;28;20965;-45
2022/06/16 05:39:58;;;;;;;8.97;4.83;;;;;;;18.86;64.15;102073.19;5011971;28;20434;-47
2022/06/16 05:42:26;;;;;;;6.63;6.13;;;;;;;19.72;64.00;102067.88;5011867;28;20476;-45
2022/06/16 05:44:54;;;;;;;6.27;5.80;;;;;;;20.33;56.71;102065.91;5012172;28;20443;-48
2022/06/16 05:47:21;;;;;;;9.77;5.37;;;;;;;20.95;54.53;102069.16;5011773;28;20460;-48
2022/06/16 05:49:49;;;;;;;6.47;5.90;;;;;;;21.17;54.44;102069.47;5011832;28;20440;-51
2022/06/16 05:52:22;;;;;;;6.80;6.30;;;;;;;21.78;51.87;102071.69;5011780;28;20432;-49
2022/06/16 05:54:50;;;;;;;5.53;5.20;;;;;;;21.68;52.07;102072.31;5011701;28;20425;-46
2022/06/16 05:57:17;;;;;;;5.90;5.50;;;;;;;21.94;50.56;102071.81;5011128;28;20769;-46
2022/06/16 05:59:45;;;;;;;5.70;5.17;;;;;;;22.78;52.69;102062.06;5011862;28;20802;-47
2022/06/16 06:02:16;;;;;;;5.70;5.20;;;;;;;23.83;46.25;102059.34;5011195;28;20433;-46
2022/06/16 06:04:45;;;;;;;4.60;4.20;;;;;;;23.19;47.56;102071.72;5011957;28;20464;-48
2022/06/16 06:07:13;;;;;;;6.00;5.37;;;;;;;23.28;46.32;102061.22;5010916;28;20457;-46
2022/06/16 06:18:16;;;;;;;4.53;4.13;;;;;;;22.26;46.46;102066.75;5011381;28;20492;-45
2022/06/16 06:20:44;;;;;;;6.80;4.70;;;;;;;22.07;45.71;102081.59;5011938;28;20435;-45
2022/06/16 06:23:12;;;;;;;4.70;3.73;;;;;;;22.28;46.03;102080.91;5011829;28;20476;-46
2022/06/16 06:25:41;;;;;;;3.90;3.47;;;;;;;22.52;44.59;102078.94;5012077;28;20936;-45
2022/06/16 06:28:12;;;;;;;3.73;3.50;;;;;;;21.96;45.84;102090.59;5011315;28;20477;-48
2022/06/16 06:30:39;;;;;;;3.97;3.67;;;;;;;22.11;45.89;102090.06;5012075;28;20441;-48
2022/06/16 06:33:08;;;;;;;4.07;3.60;;;;;;;22.62;45.20;102079.13;5002225;28;20441;-47
2022/06/16 06:35:35;;;;;;;4.90;4.40;;;;;;;23.52;45.08;102085.31;5011115;28;20937;-45
2022/06/16 06:38:03;;;;;;;5.53;4.10;;;;;;;24.01;41.99;102086.25;5011574;28;20468;-49
2022/06/16 06:40:32;;;;;;;5.90;3.77;;;;;;;24.52;41.33;102084.16;5011235;28;20895;-49
2022/06/16 06:43:02;;;;;;;4.90;4.50;;;;;;;24.68;39.41;102085.94;5011298;28;20478;-50
2022/06/16 06:45:30;;;;;;;5.83;4.03;;;;;;;25.51;37.77;102087.22;5011261;28;20440;-45
2022/06/16 06:47:57;;;;;;;4.73;3.73;;;;;;;25.12;39.27;102101.13;5010776;28;20460;-47
2022/06/16 06:50:29;;;;;;;5.33;4.00;;;;;;;25.50;39.75;102089.16;5013528;28;20439;-48
2022/06/16 06:52:57;;;;;;;5.83;3.90;;;;;;;25.73;38.13;102094.22;5014821;28;20444;-46
2022/06/16 06:55:25;;;;;;;3.93;3.53;;;;;;;25.43;37.04;102096.72;5014795;28;20439;-49
2022/06/16 06:57:55;;;;;;;5.47;3.70;;;;;;;25.09;37.72;102095.38;5014255;28;20472;-45
2022/06/16 07:00:26;;;;;;;4.13;3.83;;;;;;;25.39;38.70;102103.78;5014404;28;20452;-45
2022/06/16 07:02:54;;;;;;;3.50;3.20;;;;;;;25.31;37.31;102102.38;5014399;28;20965;-48
2022/06/16 07:05:21;;;;;;;4.13;3.80;;;;;;;26.15;37.75;102102.38;5014721;28;20930;-44
2022/06/16 07:07:49;;;;;;;3.70;3.40;;;;;;;25.95;36.15;102101.44;5013988;28;20245;-48
2022/06/16 07:10:19;;;;;;;4.77;3.87;;;;;;;26.08;36.80;102101.75;5014588;28;20432;-46
2022/06/16 07:12:47;;;;;;;4.80;3.63;;;;;;;25.02;39.58;102102.97;5014219;28;20440;-49
2022/06/16 07:15:15;;;;;;;4.07;3.87;;;;;;;24.22;39.91;102109.19;5014144;28;20494;-44
2022/06/16 07:17:44;;;;;;;7.10;3.60;;;;;;;23.65;40.58;102103.22;5013842;28;20468;-49
2022/06/16 07:20:15;;;;;;;3.93;3.63;;;;;;;22.98;41.23;102114.09;5014219;28;20433;-45
2022/06/16 07:22:44;;;;;;;4.60;4.20;;;;;;;23.59;41.98;102121.38;5014280;28;20480;-47
2022/06/16 07:25:11;;;;;;;3.70;3.40;;;;;;;23.94;41.80;102109.31;5014077;28;20817;-50
2022/06/16 07:27:39;;;;;;;3.80;3.43;;;;;;;24.11;40.57;102115.56;5013447;28;20838;-46
2022/06/16 07:30:13;;;;;;;5.20;4.33;;;;;;;24.41;42.01;102121.41;5014136;28;20425;-48
2022/06/16 07:32:41;;;;;;;3.40;3.20;;;;;;;24.60;40.23;102119.97;5008280;28;20798;-45
2022/06/16 07:35:12;;;;;;;3.60;3.30;;;;;;;24.64;39.88;102115.66;5009882;28;20425;-50
2022/06/16 07:37:40;;;;;;;8.80;3.50;;;;;;;24.60;39.02;102106.34;5013517;28;20466;-46
2022/06/16 07:40:09;;;;;;;4.03;3.73;;;;;;;24.08;39.07;102110.59;5013721;28;20433;-46
2022/06/16 07:42:38;;;;;;;3.53;3.33;;;;;;;24.03;40.18;102108.63;5013962;28;20433;-48
2022/06/16 07:45:07;;;;;;;4.17;3.17;;;;;;;24.17;38.61;102118.13;5013922;28;20484;-50
2022/06/16 07:47:35;;;;;;;4.57;3.13;;;;;;;23.98;39.56;102110.47;5013246;28;20460;-47
2022/06/16 07:50:04;;;;;;;3.77;3.30;;;;;;;24.10;40.31;102120.19;5013637;28;20938;-45
2022/06/16 07:52:33;;;;;;;3.60;3.30;;;;;;;24.17;39.75;102120.00;5013290;28;20531;-47
2022/06/16 07:55:01;;;;;;;6.80;3.83;;;;;;;24.11;39.65;102119.13;5014020;28;20432;-45
2022/06/16 07:57:31;;;;;;;4.03;3.63;;;;;;;23.71;40.99;102120.44;5012888;28;20468;-46
2022/06/16 07:59:59;;;;;;;3.70;3.40;;;;;;;23.22;41.02;102119.38;5013133;28;20428;-46
2022/06/16 08:02:28;;;;;;;3.13;3.00;;;;;;;22.96;42.21;102116.25;5013555;28;20433;-47
2022/06/16 08:04:56;;;;;;;8.47;4.30;;;;;;;22.20;43.43;102119.34;5013232;28;20472;-49
2022/06/16 08:07:24;;;;;;;3.70;3.40;;;;;;;21.90;44.54;102107.84;5012877;28;20456;-45
2022/06/16 08:09:53;;;;;;;4.33;3.90;;;;;;;21.56;43.45;102111.38;5013292;28;20952;-46
2022/06/16 08:12:21;;;;;;;4.10;3.77;;;;;;;21.57;46.04;102123.88;5013154;28;20476;-46
2022/06/16 08:14:49;;;;;;;3.83;3.50;;;;;;;21.79;43.81;102123.06;5013398;28;20429;-49
2022/06/16 08:17:22;;;;;;;3.70;3.50;;;;;;;21.63;46.00;102118.31;5012737;28;20464;-47
2022/06/16 08:19:50;;;;;;;4.67;3.67;;;;;;;21.56;47.02;102119.53;5013024;28;20478;-46
2022/06/16 08:22:18;;;;;;;4.17;3.77;;;;;;;21.29;46.15;102114.56;5012856;28;20723;-46
2022/06/16 08:24:47;;;;;;;4.00;3.60;;;;;;;20.93;47.69;102122.81;5013082;28;20483;-47
2022/06/16 08:27:17;;;;;;;3.43;3.17;;;;;;;20.61;47.96;102113.28;5012569;28;20448;-45
2022/06/16 08:29:46;;;;;;;4.90;3.17;;;;;;;20.47;48.71;102117.22;5012972;28;20468;-46
2022/06/16 08:32:16;;;;;;;3.90;3.60;;;;;;;20.54;48.19;102110.66;5010051;28;20425;-45
2022/06/16 08:34:45;;;;;;;5.20;3.33;;;;;;;20.52;49.17;102110.03;4998297;28;20944;-46
2022/06/16 08:37:13;;;;;;;4.27;3.33;;;;;;;20.55;47.00;102101.44;5012224;28;20997;-45
2022/06/16 08:39:40;;;;;;;4.03;3.73;;;;;;;20.83;47.50;102120.66;5012723;28;20433;-45
2022/06/16 08:42:11;;;;;;;4.33;3.93;;;;;;;20.95;46.54;102105.25;5012770;28;20464;-49
2022/06/16 08:44:46;;;;;;;4.30;4.00;;;;;;;21.03;46.97;102109.50;5012829;28;20476;-47
2022/06/16 08:47:18;;;;;;;4.57;4.17;;;;;;;20.97;46.06;102096.88;5012216;28;20466;-45
2022/06/16 08:49:56;;;;;;;4.23;3.93;;;;;;;20.76;47.83;102100.94;5013322;28;20439;-44
2022/06/16 08:52:36;;;;;;;5.10;3.57;;;;;;;21.14;46.03;102094.34;5013352;28;20432;-45
2022/06/16 08:55:12;;;;;;;6.43;4.47;;;;;;;21.01;46.90;102102.66;5012796;28;20435;-44
2022/06/16 08:57:52;;;;;;;4.13;3.40;;;;;;;20.87;46.07;102102.06;5012539;28;20459;-47
2022/06/16 09:00:25;;;;;;;3.33;3.10;;;;;;;20.98;46.67;102115.63;5012722;28;20432;-47
2022/06/16 09:02:56;;;;;;;3.83;3.63;;;;;;;21.09;46.97;102108.59;5013019;28;20447;-47
2022/06/16 09:05:36;;;;;;;3.90;3.60;;;;;;;20.54;49.62;102117.97;5012640;28;20934;-46
2022/06/16 09:08:15;;;;;;;3.70;3.37;;;;;;;20.08;50.64;102116.63;5012796;28;20459;-45
2022/06/16 09:10:49;;;;;;;4.77;4.13;;;;;;;20.31;50.27;102111.34;5012406;28;20428;-47
2022/06/16 09:13:44;;;;;;;5.10;3.47;;;;;;;20.90;48.71;102113.28;5011767;28;20443;-45
2022/06/16 09:16:28;;;;;;;4.30;3.80;;;;;;;21.30;48.66;102109.94;5012477;28;20445;-48
2022/06/16 09:19:10;;;;;;;4.07;3.40;;;;;;;20.40;47.44;102117.28;5011807;28;20464;-50
2022/06/16 09:21:45;;;;;;;3.83;3.53;;;;;;;20.41;46.52;102110.81;5012286;28;20433;-47
2022/06/16 09:24:31;;;;;;;3.80;3.17;;;;;;;20.73;49.68;102119.56;5012253;28;20432;-48
2022/06/16 09:27:06;;;;;;;3.30;3.10;;;;;;;21.11;47.85;102120.06;5012633;28;20436;-47
2022/06/16 09:29:41;;;;;;;3.67;3.47;;;;;;;20.54;46.52;102118.78;5012163;28;20443;-47
2022/06/16 09:32:17;;;;;;;3.53;3.30;;;;;;;20.65;46.31;102107.16;5009577;28;20790;-48
2022/06/16 09:34:52;;;;;;;5.00;3.67;;;;;;;20.94;46.94;102102.75;4997718;28;20791;-48
2022/06/16 09:37:26;;;;;;;11.47;3.80;;;;;;;20.90;48.11;102107.84;5011971;28;20448;-46
2022/06/16 09:40:02;;;;;;;3.53;3.17;;;;;;;20.65;49.19;102100.91;5012271;28;20956;-47
2022/06/16 09:42:37;;;;;;;3.70;3.40;;;;;;;20.55;48.24;102098.75;5012059;28;20937;-45
2022/06/16 09:45:13;;;;;;;5.93;3.60;;;;;;;20.74;47.66;102094.94;5011999;28;21064;-46
2022/06/16 09:47:48;;;;;;;6.17;3.20;;;;;;;20.94;47.55;102087.31;5011304;28;20518;-48
2022/06/16 09:50:24;;;;;;;5.63;3.20;;;;;;;21.07;48.86;102090.88;5011662;28;20427;-45
2022/06/16 09:52:58;;;;;;;5.93;3.30;;;;;;;21.01;47.33;102089.94;5011777;28;20902;-49
2022/06/16 09:55:33;;;;;;;3.60;3.30;;;;;;;20.77;48.40;102091.75;5011924;28;20464;-45
2022/06/16 09:58:13;;;;;;;3.30;3.20;;;;;;;20.71;48.38;102092.69;5011277;28;20989;-46
2022/06/16 10:00:41;;;;;;;4.40;3.63;;;;;;;21.28;45.68;102095.78;5011668;28;20437;-45
2022/06/16 10:03:26;;;;;;;3.67;3.57;;;;;;;20.57;46.75;102088.53;5011741;28;20498;-48
2022/06/16 10:06:07;;;;;;;5.63;3.60;;;;;;;20.53;46.11;102097.31;5011583;28;20487;-47
2022/06/16 10:08:43;;;;;;;3.23;3.00;;;;;;;20.80;46.95;102104.03;5011216;28;20993;-48
2022/06/16 10:11:16;;;;;;;4.03;3.73;;;;;;;20.84;47.41;102111.47;5011580;28;20448;-46
2022/06/16 10:13:51;;;;;;;3.57;3.37;;;;;;;21.16;46.56;102103.06;5011775;28;20809;-46
2022/06/16 10:16:26;;;;;;;3.60;3.40;;;;;;;21.30;47.48;102099.06;5011417;28;20440;-45
2022/06/16 10:18:56;;;;;;;3.73;3.43;;;;;;;21.09;45.52;102108.59;5011312;28;20464;-47
2022/06/16 10:21:23;;;;;;;4.47;3.00;;;;;;;20.64;48.25;102118.25;5011486;28;20810;-45
2022/06/16 10:23:56;;;;;;;3.30;3.00;;;;;;;20.67;46.39;102118.59;5013202;28;20437;-50
2022/06/16 10:26:23;;;;;;;4.20;3.20;;;;;;;21.63;45.13;102114.78;5015079;28;20978;-47
2022/06/16 10:29:06;;;;;;;3.27;2.97;;;;;;;21.46;45.80;102128.25;5014396;28;20517;-47
2022/06/16 10:31:38;;;;;;;3.40;3.20;;;;;;;20.87;45.85;102130.00;5012365;28;20444;-48
2022/06/16 10:34:26;;;;;;;3.70;3.50;;;;;;;20.72;47.54;102126.88;5007205;28;20455;-45
2022/06/16 10:37:00;;;;;;;3.10;2.90;;;;;;;21.20;46.29;102124.09;5015152;28;20978;-46
2022/06/16 10:39:37;;;;;;;3.57;3.20;;;;;;;21.56;44.50;102125.78;5014879;28;20436;-45
2022/06/16 10:42:15;;;;;;;4.07;3.70;;;;;;;21.79;43.69;102124.94;5015326;28;20429;-49
2022/06/16 10:44:49;;;;;;;3.50;3.30;;;;;;;21.79;42.11;102120.34;5014877;28;20431;-46
2022/06/16 10:47:21;;;;;;;3.33;3.13;;;;;;;22.01;42.38;102136.88;5014245;28;20466;-47
2022/06/16 10:49:51;;;;;;;3.53;3.40;;;;;;;21.57;43.45;102137.44;5014872;28;20464;-49
2022/06/16 10:52:28;;;;;;;4.57;4.10;;;;;;;21.33;47.07;102137.44;5014939;28;20429;-47
2022/06/16 10:54:59;;;;;;;3.97;3.33;;;;;;;21.59;45.15;102135.34;5015038;28;20416;-46
2022/06/16 10:57:32;;;;;;;3.40;3.10;;;;;;;21.20;44.10;102136.84;5014401;28;20460;-47
2022/06/16 11:00:07;;;;;;;4.30;3.87;;;;;;;20.72;46.73;102150.44;5014494;28;20951;-45
2022/06/16 11:02:36;;;;;;;4.00;3.63;;;;;;;20.74;46.05;102142.91;5014542;28;20441;-49
2022/06/16 11:05:12;;;;;;;3.50;3.23;;;;;;;21.00;45.57;102149.84;5014865;28;20447;-46
2022/06/16 11:07:43;;;;;;;5.97;3.60;;;;;;;21.48;45.03;102148.66;5014086;28;20472;-48
2022/06/16 11:10:13;;;;;;;4.80;3.33;;;;;;;21.15;45.57;102156.50;5014558;28;20437;-44
2022/06/16 11:12:46;;;;;;;3.70;3.50;;;;;;;21.45;44.72;102151.00;5014634;28;20452;-45
2022/06/16 11:15:22;;;;;;;3.83;3.30;;;;;;;21.56;43.66;102150.22;5014816;28;20421;-45
2022/06/16 11:17:53;;;;;;;3.70;3.43;;;;;;;21.10;45.91;102148.25;5014245;28;20464;-47
2022/06/16 11:20:32;;;;;;;3.97;3.70;;;;;;;21.34;46.66;102140.97;5014348;28;20433;-45
2022/06/16 11:22:59;;;;;;;3.83;3.53;;;;;;;21.78;45.80;102136.84;5014664;28;20833;-45
2022/06/16 11:25:31;;;;;;;3.97;3.20;;;;;;;21.63;43.76;102136.50;5014584;28;20476;-46
2022/06/16 11:28:00;;;;;;;3.47;3.20;;;;;;;21.53;45.46;102150.69;5014044;28;20460;-50
2022/06/16 11:30:36;;;;;;;3.53;3.23;;;;;;;21.84;44.23;102139.44;5014252;28;20428;-49
2022/06/16 11:33:07;;;;;;;4.43;3.23;;;;;;;21.75;45.69;102140.88;5004934;28;20434;-45
2022/06/16 11:35:45;;;;;;;4.50;3.50;;;;;;;21.68;43.56;102137.47;5012462;28;20425;-47
2022/06/16 11:38:19;;;;;;;3.00;2.90;;;;;;;21.67;44.10;102137.69;5013979;28;20470;-48
2022/06/16 11:40:52;;;;;;;5.30;3.77;;;;;;;21.63;44.57;102133.78;5013762;28;20439;-47
2022/06/16 11:43:35;;;;;;;3.77;3.50;;;;;;;21.57;46.67;102138.28;5013917;28;20437;-46
2022/06/16 11:46:11;;;;;;;3.50;3.30;;;;;;;21.42;46.75;102144.16;5013433;28;20477;-47
2022/06/16 11:49:01;;;;;;;2.90;2.80;;;;;;;21.39;43.37;102130.22;5013577;28;20502;-47
2022/06/16 11:51:38;;;;;;;3.13;2.93;;;;;;;21.92;44.17;102124.72;5013667;28;20432;-44
2022/06/16 11:54:20;;;;;;;3.33;3.10;;;;;;;21.98;42.01;102137.38;5013729;28;21081;-44
2022/06/16 11:56:52;;;;;;;3.63;3.30;;;;;;;21.94;43.53;102138.91;5013908;28;20451;-47
2022/06/16 11:59:37;;;;;;;2.50;2.30;;;;;;;21.36;44.32;102134.25;5013269;28;20457;-44
2022/06/16 12:02:24;;;;;;;3.47;3.27;;;;;;;21.13;46.05;102138.81;5043108;23;20476;-46